createdAt,value
2022-08-29T00:00:44.866Z,1002.06
2022-08-29T00:01:44.867Z,1002.09
2022-08-29T00:02:44.850Z,1002.07
2022-08-29T00:03:44.828Z,1002.11
2022-08-29T00:04:44.825Z,1002.03
2022-08-29T00:05:44.807Z,1002.03
2022-08-29T00:06:45.819Z,1002.01
2022-08-29T00:07:44.786Z,1002.01
2022-08-29T00:08:44.776Z,1002.01
2022-08-29T00:09:44.766Z,1001.96
2022-08-29T00:10:44.758Z,1001.98
2022-08-29T00:11:46.436Z,1001.95
2022-08-29T00:12:44.757Z,1001.93
2022-08-29T00:13:44.719Z,1001.91
2022-08-29T00:14:44.708Z,1001.94
2022-08-29T00:15:45.379Z,1001.93
2022-08-29T00:16:44.752Z,1001.94
2022-08-29T00:17:44.677Z,1001.88
2022-08-29T00:18:44.678Z,1001.94
2022-08-29T00:19:44.649Z,1001.94
2022-08-29T00:20:44.638Z,1001.99
2022-08-29T00:21:44.628Z,1001.95
2022-08-29T00:22:44.617Z,1002.00
2022-08-29T00:23:44.638Z,1001.99
2022-08-29T00:24:44.597Z,1002.00
2022-08-29T00:25:44.615Z,1001.93
2022-08-29T00:26:44.583Z,1002.01
2022-08-29T00:27:44.621Z,1001.97
2022-08-29T00:28:45.581Z,1001.94
2022-08-29T00:29:44.538Z,1001.94
2022-08-29T00:30:44.529Z,1001.98
2022-08-29T00:31:44.561Z,1001.97
2022-08-29T00:32:44.508Z,1002.00
2022-08-29T00:33:44.497Z,1001.97
2022-08-29T00:34:44.508Z,1001.99
2022-08-29T00:35:44.470Z,1002.04
2022-08-29T00:36:49.354Z,1002.05
2022-08-29T00:37:45.458Z,1002.03
2022-08-29T00:38:44.439Z,1001.97
2022-08-29T00:39:44.428Z,1001.98
2022-08-29T00:40:45.050Z,1002.01
2022-08-29T00:41:45.402Z,1001.97
2022-08-29T00:42:44.403Z,1001.95
2022-08-29T00:43:44.388Z,1002.00
2022-08-29T00:44:44.370Z,1002.04
2022-08-29T00:45:44.430Z,1002.06
2022-08-29T00:46:44.349Z,1002.02
2022-08-29T00:47:44.340Z,1002.06
2022-08-29T00:48:44.330Z,1002.09
2022-08-29T00:49:44.309Z,1002.06
2022-08-29T00:50:44.308Z,1002.11
2022-08-29T00:51:44.318Z,1002.05
2022-08-29T00:52:44.284Z,1002.14
2022-08-29T00:53:44.268Z,1002.12
2022-08-29T00:54:44.262Z,1002.10
2022-08-29T00:55:44.250Z,1002.10
2022-08-29T00:56:45.259Z,1002.16
2022-08-29T00:57:44.227Z,1002.09
2022-08-29T00:58:44.221Z,1002.09
2022-08-29T00:59:44.199Z,1002.08
2022-08-29T01:00:44.279Z,1002.09
2022-08-29T01:01:44.254Z,1002.12
2022-08-29T01:02:44.225Z,1002.09
2022-08-29T01:03:44.150Z,1002.09
2022-08-29T01:04:44.160Z,1002.10
2022-08-29T01:05:44.130Z,1002.07
2022-08-29T01:06:44.130Z,1002.07
2022-08-29T01:07:44.149Z,1002.14
2022-08-29T01:08:44.101Z,1002.10
2022-08-29T01:09:44.089Z,1002.12
2022-08-29T01:10:44.081Z,1002.07
2022-08-29T01:11:44.060Z,1002.08
2022-08-29T01:12:44.050Z,1002.13
2022-08-29T01:13:44.095Z,1002.11
2022-08-29T01:14:44.030Z,1002.12
2022-08-29T01:15:44.770Z,1002.15
2022-08-29T01:16:44.084Z,1002.13
2022-08-29T01:17:44.004Z,1002.08
2022-08-29T01:18:43.992Z,1002.12
2022-08-29T01:19:43.990Z,1002.14
2022-08-29T01:20:43.968Z,1002.11
2022-08-29T01:21:43.950Z,1002.10
2022-08-29T01:22:43.944Z,1002.17
2022-08-29T01:23:43.932Z,1002.09
2022-08-29T01:24:43.944Z,1002.05
2022-08-29T01:25:43.911Z,1002.08
2022-08-29T01:26:43.899Z,1002.08
2022-08-29T01:27:43.882Z,1002.12
2022-08-29T01:28:43.884Z,1002.06
2022-08-29T01:29:43.861Z,1002.07
2022-08-29T01:30:43.879Z,1002.03
2022-08-29T01:31:56.796Z,1002.04
2022-08-29T01:32:44.831Z,1002.03
2022-08-29T01:33:43.882Z,1002.05
2022-08-29T01:34:43.812Z,1002.04
2022-08-29T01:35:43.804Z,1002.05
2022-08-29T01:36:43.810Z,1002.05
2022-08-29T01:37:43.775Z,1002.05
2022-08-29T01:38:43.773Z,1002.07
2022-08-29T01:39:43.750Z,1002.05
2022-08-29T01:40:43.742Z,1002.07
2022-08-29T01:41:43.731Z,1002.05
2022-08-29T01:42:43.742Z,1002.08
2022-08-29T01:43:43.704Z,1002.08
2022-08-29T01:44:43.693Z,1002.12
2022-08-29T01:45:43.729Z,1002.11
2022-08-29T01:46:43.671Z,1002.14
2022-08-29T01:47:43.663Z,1002.13
2022-08-29T01:48:43.672Z,1002.14
2022-08-29T01:49:43.634Z,1002.13
2022-08-29T01:50:43.622Z,1002.14
2022-08-29T01:51:43.611Z,1002.15
2022-08-29T01:52:43.648Z,1002.13
2022-08-29T01:53:43.622Z,1002.19
2022-08-29T01:54:43.582Z,1002.16
2022-08-29T01:55:43.592Z,1002.21
2022-08-29T01:56:43.564Z,1002.16
2022-08-29T01:57:43.543Z,1002.20
2022-08-29T01:58:43.532Z,1002.16
2022-08-29T01:59:43.545Z,1002.22
2022-08-29T02:00:43.617Z,1002.20
2022-08-29T02:01:43.592Z,1002.17
2022-08-29T02:02:43.492Z,1002.22
2022-08-29T02:03:43.474Z,1002.20
2022-08-29T02:04:43.472Z,1002.18
2022-08-29T02:05:43.486Z,1002.17
2022-08-29T02:06:43.453Z,1002.20
2022-08-29T02:07:43.431Z,1002.27
2022-08-29T02:08:43.423Z,1002.29
2022-08-29T02:09:45.793Z,1002.22
2022-08-29T02:10:43.424Z,1002.28
2022-08-29T02:11:43.394Z,1002.25
2022-08-29T02:12:43.381Z,1002.26
2022-08-29T02:13:43.363Z,1002.28
2022-08-29T02:14:43.353Z,1002.27
2022-08-29T02:15:43.346Z,1002.31
2022-08-29T02:16:43.403Z,1002.32
2022-08-29T02:17:43.323Z,1002.34
2022-08-29T02:18:43.315Z,1002.29
2022-08-29T02:19:43.295Z,1002.31
2022-08-29T02:20:43.292Z,1002.30
2022-08-29T02:21:43.317Z,1002.34
2022-08-29T02:22:43.264Z,1002.31
2022-08-29T02:23:43.252Z,1002.33
2022-08-29T02:24:43.243Z,1002.32
2022-08-29T02:25:43.232Z,1002.32
2022-08-29T02:26:43.226Z,1002.33
2022-08-29T02:27:43.229Z,1002.34
2022-08-29T02:28:43.195Z,1002.30
2022-08-29T02:29:43.184Z,1002.34
2022-08-29T02:30:43.175Z,1002.27
2022-08-29T02:31:43.194Z,1002.30
2022-08-29T02:32:43.177Z,1002.28
2022-08-29T02:33:43.135Z,1002.32
2022-08-29T02:34:44.451Z,1002.29
2022-08-29T02:35:43.124Z,1002.32
2022-08-29T02:36:44.445Z,1002.28
2022-08-29T02:37:43.095Z,1002.35
2022-08-29T02:38:43.103Z,1002.33
2022-08-29T02:39:43.075Z,1002.29
2022-08-29T02:40:43.125Z,1002.29
2022-08-29T02:41:44.388Z,1002.33
2022-08-29T02:42:43.035Z,1002.34
2022-08-29T02:43:43.047Z,1002.30
2022-08-29T02:44:43.022Z,1002.29
2022-08-29T02:45:43.005Z,1002.31
2022-08-29T02:46:43.082Z,1002.32
2022-08-29T02:47:42.978Z,1002.32
2022-08-29T02:48:42.977Z,1002.35
2022-08-29T02:49:43.990Z,1002.34
2022-08-29T02:50:42.946Z,1002.35
2022-08-29T02:51:42.935Z,1002.35
2022-08-29T02:52:42.927Z,1002.35
2022-08-29T02:53:42.915Z,1002.39
2022-08-29T02:54:42.925Z,1002.32
2022-08-29T02:55:42.895Z,1002.37
2022-08-29T02:56:42.886Z,1002.38
2022-08-29T02:57:42.865Z,1002.42
2022-08-29T02:58:42.867Z,1002.40
2022-08-29T02:59:42.845Z,1002.36
2022-08-29T03:00:42.976Z,1002.35
2022-08-29T03:01:42.883Z,1002.32
2022-08-29T03:02:42.816Z,1002.34
2022-08-29T03:03:42.805Z,1002.43
2022-08-29T03:04:42.786Z,1002.44
2022-08-29T03:05:42.777Z,1002.38
2022-08-29T03:06:42.806Z,1002.31
2022-08-29T03:07:42.755Z,1002.37
2022-08-29T03:08:42.747Z,1002.35
2022-08-29T03:09:42.735Z,1002.38
2022-08-29T03:10:42.725Z,1002.43
2022-08-29T03:11:42.714Z,1002.41
2022-08-29T03:12:42.756Z,1002.43
2022-08-29T03:13:42.686Z,1002.40
2022-08-29T03:14:42.685Z,1002.45
2022-08-29T03:15:42.716Z,1002.43
2022-08-29T03:16:42.657Z,1002.39
2022-08-29T03:17:42.646Z,1002.37
2022-08-29T03:18:42.657Z,1002.43
2022-08-29T03:19:42.627Z,1002.38
2022-08-29T03:20:42.616Z,1002.44
2022-08-29T03:21:42.597Z,1002.42
2022-08-29T03:22:42.589Z,1002.43
2022-08-29T03:23:42.578Z,1002.44
2022-08-29T03:24:42.578Z,1002.42
2022-08-29T03:25:42.587Z,1002.49
2022-08-29T03:26:42.545Z,1002.46
2022-08-29T03:27:42.536Z,1002.42
2022-08-29T03:28:42.522Z,1002.44
2022-08-29T03:29:42.546Z,1002.42
2022-08-29T03:30:42.497Z,1002.44
2022-08-29T03:31:42.550Z,1002.41
2022-08-29T03:32:42.478Z,1002.48
2022-08-29T03:33:42.467Z,1002.41
2022-08-29T03:34:42.456Z,1002.42
2022-08-29T03:35:42.539Z,1002.39
2022-08-29T03:36:42.436Z,1002.48
2022-08-29T03:37:42.430Z,1002.37
2022-08-29T03:38:42.409Z,1002.40
2022-08-29T03:39:42.400Z,1002.46
2022-08-29T03:40:42.413Z,1002.44
2022-08-29T03:41:42.395Z,1002.45
2022-08-29T03:42:42.358Z,1002.51
2022-08-29T03:43:42.357Z,1002.47
2022-08-29T03:44:42.337Z,1002.49
2022-08-29T03:45:42.339Z,1002.45
2022-08-29T03:46:42.406Z,1002.49
2022-08-29T03:47:42.308Z,1002.44
2022-08-29T03:48:42.298Z,1002.53
2022-08-29T03:49:42.288Z,1002.47
2022-08-29T03:50:42.268Z,1002.53
2022-08-29T03:51:42.268Z,1002.48
2022-08-29T03:52:42.267Z,1002.47
2022-08-29T03:53:42.239Z,1002.48
2022-08-29T03:54:42.229Z,1002.50
2022-08-29T03:55:42.227Z,1002.48
2022-08-29T03:56:42.209Z,1002.45
2022-08-29T03:57:42.220Z,1002.47
2022-08-29T03:58:42.188Z,1002.47
2022-08-29T03:59:42.177Z,1002.46
2022-08-29T04:00:42.158Z,1002.53
2022-08-29T04:01:42.182Z,1002.53
2022-08-29T04:02:42.172Z,1002.51
2022-08-29T04:03:42.148Z,1002.46
2022-08-29T04:04:42.108Z,1002.52
2022-08-29T04:05:42.118Z,1002.47
2022-08-29T04:06:42.096Z,1002.55
2022-08-29T04:07:42.078Z,1002.50
2022-08-29T04:08:42.069Z,1002.46
2022-08-29T04:09:42.089Z,1002.48
2022-08-29T04:10:42.048Z,1002.45
2022-08-29T04:11:42.038Z,1002.46
2022-08-29T04:12:42.044Z,1002.47
2022-08-29T04:13:42.018Z,1002.45
2022-08-29T04:14:42.000Z,1002.42
2022-08-29T04:15:42.071Z,1002.43
2022-08-29T04:16:41.984Z,1002.44
2022-08-29T04:17:52.689Z,1002.45
2022-08-29T04:18:42.956Z,1002.44
2022-08-29T04:19:41.954Z,1002.53
2022-08-29T04:20:41.930Z,1002.53
2022-08-29T04:21:41.941Z,1002.53
2022-08-29T04:22:41.916Z,1002.50
2022-08-29T04:23:41.911Z,1002.55
2022-08-29T04:24:41.890Z,1002.52
2022-08-29T04:25:41.889Z,1002.57
2022-08-29T04:26:41.888Z,1002.56
2022-08-29T04:27:41.869Z,1002.57
2022-08-29T04:28:41.851Z,1002.59
2022-08-29T04:29:41.838Z,1002.58
2022-08-29T04:30:41.832Z,1002.59
2022-08-29T04:31:41.876Z,1002.62
2022-08-29T04:32:41.820Z,1002.54
2022-08-29T04:33:41.790Z,1002.59
2022-08-29T04:34:41.777Z,1002.52
2022-08-29T04:35:41.769Z,1002.56
2022-08-29T04:36:41.771Z,1002.60
2022-08-29T04:37:41.749Z,1002.61
2022-08-29T04:38:41.750Z,1002.57
2022-08-29T04:39:41.739Z,1002.56
2022-08-29T04:40:41.818Z,1002.56
2022-08-29T04:41:41.721Z,1002.58
2022-08-29T04:42:41.689Z,1002.58
2022-08-29T04:43:41.678Z,1002.61
2022-08-29T04:44:41.688Z,1002.63
2022-08-29T04:45:41.659Z,1002.56
2022-08-29T04:46:41.671Z,1002.58
2022-08-29T04:47:41.634Z,1002.64
2022-08-29T04:48:41.617Z,1002.62
2022-08-29T04:49:48.682Z,1002.63
2022-08-29T04:50:41.593Z,1002.64
2022-08-29T04:51:46.129Z,1002.64
2022-08-29T04:52:41.570Z,1002.65
2022-08-29T04:53:41.571Z,1002.68
2022-08-29T04:54:41.550Z,1002.64
2022-08-29T04:55:41.580Z,1002.57
2022-08-29T04:56:43.661Z,1002.61
2022-08-29T04:57:42.520Z,1002.62
2022-08-29T04:58:41.521Z,1002.61
2022-08-29T04:59:41.499Z,1002.63
2022-08-29T05:00:41.481Z,1002.63
2022-08-29T05:01:42.393Z,1002.63
2022-08-29T05:02:41.539Z,1002.62
2022-08-29T05:03:41.458Z,1002.63
2022-08-29T05:04:41.443Z,1002.65
2022-08-29T05:05:41.439Z,1002.65
2022-08-29T05:06:41.442Z,1002.63
2022-08-29T05:07:41.420Z,1002.58
2022-08-29T05:08:41.391Z,1002.60
2022-08-29T05:09:41.391Z,1002.65
2022-08-29T05:10:41.371Z,1002.67
2022-08-29T05:11:41.361Z,1002.67
2022-08-29T05:12:41.371Z,1002.70
2022-08-29T05:13:42.592Z,1002.69
2022-08-29T05:14:41.339Z,1002.70
2022-08-29T05:15:41.366Z,1002.67
2022-08-29T05:16:41.301Z,1002.70
2022-08-29T05:17:41.300Z,1002.66
2022-08-29T05:18:41.310Z,1002.70
2022-08-29T05:19:42.840Z,1002.75
2022-08-29T05:20:41.273Z,1002.73
2022-08-29T05:21:41.257Z,1002.76
2022-08-29T05:22:41.243Z,1002.77
2022-08-29T05:23:41.263Z,1002.78
2022-08-29T05:24:41.211Z,1002.76
2022-08-29T05:25:41.211Z,1002.83
2022-08-29T05:26:41.191Z,1002.79
2022-08-29T05:27:41.182Z,1002.82
2022-08-29T05:28:41.180Z,1002.75
2022-08-29T05:29:41.192Z,1002.83
2022-08-29T05:30:41.207Z,1002.82
2022-08-29T05:31:41.347Z,1002.80
2022-08-29T05:32:41.133Z,1002.84
2022-08-29T05:33:41.116Z,1002.79
2022-08-29T05:34:41.102Z,1002.84
2022-08-29T05:35:41.131Z,1002.86
2022-08-29T05:36:41.083Z,1002.84
2022-08-29T05:37:41.072Z,1002.82
2022-08-29T05:38:41.054Z,1002.81
2022-08-29T05:39:41.052Z,1002.86
2022-08-29T05:40:41.108Z,1002.86
2022-08-29T05:41:41.057Z,1002.88
2022-08-29T05:42:41.011Z,1002.89
2022-08-29T05:43:41.004Z,1002.91
2022-08-29T05:44:40.982Z,1002.86
2022-08-29T05:45:40.993Z,1002.98
2022-08-29T05:46:41.067Z,1002.94
2022-08-29T05:47:40.992Z,1002.98
2022-08-29T05:48:40.943Z,1002.97
2022-08-29T05:49:40.932Z,1002.91
2022-08-29T05:50:40.922Z,1003.02
2022-08-29T05:51:40.911Z,1002.99
2022-08-29T05:52:40.894Z,1002.92
2022-08-29T05:53:40.943Z,1002.91
2022-08-29T05:54:40.879Z,1002.93
2022-08-29T05:55:40.873Z,1002.91
2022-08-29T05:56:40.856Z,1002.93
2022-08-29T05:57:40.844Z,1002.92
2022-08-29T05:58:40.853Z,1002.91
2022-08-29T05:59:40.813Z,1002.92
2022-08-29T06:00:40.899Z,1002.91
2022-08-29T06:01:40.793Z,1002.83
2022-08-29T06:02:40.929Z,1002.86
2022-08-29T06:03:45.457Z,1002.94
2022-08-29T06:04:42.215Z,1002.98
2022-08-29T06:05:40.761Z,1002.97
2022-08-29T06:06:40.734Z,1002.93
2022-08-29T06:07:40.756Z,1002.96
2022-08-29T06:08:40.714Z,1002.95
2022-08-29T06:09:40.712Z,1002.89
2022-08-29T06:10:40.716Z,1002.85
2022-08-29T06:11:40.686Z,1002.86
2022-08-29T06:12:40.664Z,1002.87
2022-08-29T06:13:40.663Z,1002.85
2022-08-29T06:14:40.644Z,1002.89
2022-08-29T06:15:40.669Z,1002.85
2022-08-29T06:16:40.644Z,1002.85
2022-08-29T06:17:40.619Z,1002.85
2022-08-29T06:18:40.604Z,1002.81
2022-08-29T06:19:40.595Z,1002.87
2022-08-29T06:20:40.585Z,1002.81
2022-08-29T06:21:40.614Z,1002.81
2022-08-29T06:22:40.706Z,1002.84
2022-08-29T06:23:40.546Z,1002.78
2022-08-29T06:24:40.535Z,1002.87
2022-08-29T06:25:40.691Z,1002.89
2022-08-29T06:26:40.505Z,1002.86
2022-08-29T06:27:40.525Z,1002.85
2022-08-29T06:28:40.498Z,1002.91
2022-08-29T06:29:43.488Z,1002.88
2022-08-29T06:30:40.514Z,1002.91
2022-08-29T06:31:40.485Z,1002.79
2022-08-29T06:32:40.447Z,1002.87
2022-08-29T06:33:40.675Z,1002.89
2022-08-29T06:34:40.429Z,1002.94
2022-08-29T06:35:40.425Z,1002.90
2022-08-29T06:36:40.407Z,1003.00
2022-08-29T06:37:40.408Z,1003.00
2022-08-29T06:38:40.408Z,1003.08
2022-08-29T06:39:40.375Z,1003.07
2022-08-29T06:40:40.438Z,1003.04
2022-08-29T06:41:40.349Z,1003.09
2022-08-29T06:42:40.340Z,1003.11
2022-08-29T06:43:40.333Z,1003.12
2022-08-29T06:44:43.913Z,1003.18
2022-08-29T06:45:40.348Z,1003.15
2022-08-29T06:46:40.335Z,1003.07
2022-08-29T06:47:40.287Z,1003.06
2022-08-29T06:48:40.270Z,1003.02
2022-08-29T06:49:40.260Z,1003.09
2022-08-29T06:50:44.892Z,1003.11
2022-08-29T06:51:41.239Z,1003.12
2022-08-29T06:52:40.220Z,1003.18
2022-08-29T06:53:40.428Z,1003.08
2022-08-29T06:54:40.200Z,1003.17
2022-08-29T06:55:40.257Z,1003.07
2022-08-29T06:56:40.190Z,1003.11
2022-08-29T06:57:40.174Z,1003.14
2022-08-29T06:58:40.161Z,1003.05
2022-08-29T06:59:40.154Z,1003.10
2022-08-29T07:00:40.162Z,1003.11
2022-08-29T07:01:40.174Z,1003.12
2022-08-29T07:02:40.270Z,1003.14
2022-08-29T07:03:40.104Z,1003.19
2022-08-29T07:04:40.092Z,1003.21
2022-08-29T07:05:40.093Z,1003.22
2022-08-29T07:06:40.064Z,1003.16
2022-08-29T07:07:40.063Z,1003.19
2022-08-29T07:08:55.946Z,1003.24
2022-08-29T07:09:41.044Z,1003.34
2022-08-29T07:10:40.024Z,1003.26
2022-08-29T07:11:41.284Z,1003.36
2022-08-29T07:12:40.045Z,1003.24
2022-08-29T07:13:39.994Z,1003.16
2022-08-29T07:14:40.019Z,1003.28
2022-08-29T07:15:40.245Z,1003.35
2022-08-29T07:16:39.969Z,1003.26
2022-08-29T07:17:39.964Z,1003.33
2022-08-29T07:18:39.944Z,1003.34
2022-08-29T07:19:39.935Z,1003.36
2022-08-29T07:20:39.937Z,1003.37
2022-08-29T07:21:39.917Z,1003.37
2022-08-29T07:22:39.907Z,1003.35
2022-08-29T07:23:39.887Z,1003.33
2022-08-29T07:24:39.886Z,1003.41
2022-08-29T07:25:39.888Z,1003.39
2022-08-29T07:26:39.857Z,1003.39
2022-08-29T07:27:39.839Z,1003.32
2022-08-29T07:28:42.251Z,1003.32
2022-08-29T07:29:40.819Z,1003.31
2022-08-29T07:30:39.846Z,1003.40
2022-08-29T07:31:39.819Z,1003.38
2022-08-29T07:32:39.800Z,1003.45
2022-08-29T07:33:39.780Z,1003.29
2022-08-29T07:34:39.770Z,1003.27
2022-08-29T07:35:39.760Z,1003.41
2022-08-29T07:36:39.784Z,1003.34
2022-08-29T07:37:39.784Z,1003.36
2022-08-29T07:38:39.730Z,1003.34
2022-08-29T07:39:39.712Z,1003.32
2022-08-29T07:40:39.802Z,1003.29
2022-08-29T07:41:39.697Z,1003.36
2022-08-29T07:42:39.691Z,1003.25
2022-08-29T07:43:39.693Z,1003.33
2022-08-29T07:44:39.667Z,1003.45
2022-08-29T07:45:39.754Z,1003.43
2022-08-29T07:46:39.654Z,1003.45
2022-08-29T07:47:39.624Z,1003.44
2022-08-29T07:48:39.628Z,1003.45
2022-08-29T07:49:41.883Z,1003.38
2022-08-29T07:50:39.595Z,1003.40
2022-08-29T07:51:44.144Z,1003.50
2022-08-29T07:52:40.589Z,1003.36
2022-08-29T07:53:39.605Z,1003.36
2022-08-29T07:54:39.575Z,1003.31
2022-08-29T07:55:39.545Z,1003.36
2022-08-29T07:56:39.527Z,1003.42
2022-08-29T07:57:39.631Z,1003.38
2022-08-29T07:58:39.507Z,1003.40
2022-08-29T07:59:39.497Z,1003.41
2022-08-29T08:00:39.507Z,1003.38
2022-08-29T08:01:39.536Z,1003.36
2022-08-29T08:02:39.533Z,1003.37
2022-08-29T08:03:39.448Z,1003.39
2022-08-29T08:04:39.448Z,1003.38
2022-08-29T08:05:39.459Z,1003.30
2022-08-29T08:06:39.428Z,1003.31
2022-08-29T08:07:40.308Z,1003.29
2022-08-29T08:08:39.409Z,1003.29
2022-08-29T08:09:39.397Z,1003.27
2022-08-29T08:10:39.389Z,1003.34
2022-08-29T08:11:39.399Z,1003.32
2022-08-29T08:12:39.369Z,1003.30
2022-08-29T08:13:39.355Z,1003.34
2022-08-29T08:14:39.341Z,1003.33
2022-08-29T08:15:39.334Z,1003.25
2022-08-29T08:16:39.399Z,1003.29
2022-08-29T08:17:43.877Z,1003.30
2022-08-29T08:18:39.301Z,1003.34
2022-08-29T08:19:39.293Z,1003.28
2022-08-29T08:20:39.284Z,1003.28
2022-08-29T08:21:46.956Z,1003.24
2022-08-29T08:22:40.293Z,1003.26
2022-08-29T08:23:39.253Z,1003.28
2022-08-29T08:24:39.234Z,1003.30
2022-08-29T08:25:39.224Z,1003.29
2022-08-29T08:26:39.214Z,1003.30
2022-08-29T08:27:43.407Z,1003.24
2022-08-29T08:28:39.205Z,1003.25
2022-08-29T08:29:39.175Z,1003.22
2022-08-29T08:30:39.200Z,1003.27
2022-08-29T08:31:39.309Z,1003.28
2022-08-29T08:32:42.092Z,1003.26
2022-08-29T08:33:40.160Z,1003.26
2022-08-29T08:34:39.130Z,1003.14
2022-08-29T08:35:41.949Z,1003.19
2022-08-29T08:36:41.018Z,1003.18
2022-08-29T08:37:39.088Z,1003.18
2022-08-29T08:38:39.078Z,1003.15
2022-08-29T08:39:39.127Z,1003.09
2022-08-29T08:40:39.121Z,1003.13
2022-08-29T08:41:39.054Z,1003.18
2022-08-29T08:42:39.042Z,1003.07
2022-08-29T08:43:39.027Z,1003.08
2022-08-29T08:44:39.054Z,1003.13
2022-08-29T08:45:39.164Z,1003.19
2022-08-29T08:46:39.003Z,1003.13
2022-08-29T08:47:38.980Z,1003.19
2022-08-29T08:48:38.979Z,1003.21
2022-08-29T08:49:38.961Z,1003.22
2022-08-29T08:50:38.953Z,1003.12
2022-08-29T08:51:38.953Z,1003.15
2022-08-29T08:52:38.933Z,1003.18
2022-08-29T08:53:38.912Z,1003.14
2022-08-29T08:54:38.912Z,1003.22
2022-08-29T08:55:38.912Z,1003.25
2022-08-29T08:56:38.903Z,1003.21
2022-08-29T08:57:38.880Z,1003.25
2022-08-29T08:58:38.864Z,1003.29
2022-08-29T08:59:38.843Z,1003.24
2022-08-29T09:00:38.843Z,1003.34
2022-08-29T09:01:38.868Z,1003.28
2022-08-29T09:02:38.932Z,1003.30
2022-08-29T09:03:38.804Z,1003.28
2022-08-29T09:04:38.795Z,1003.24
2022-08-29T09:05:39.484Z,1003.31
2022-08-29T09:06:38.775Z,1003.26
2022-08-29T09:07:38.764Z,1003.23
2022-08-29T09:08:38.834Z,1003.35
2022-08-29T09:09:38.736Z,1003.36
2022-08-29T09:10:38.735Z,1003.34
2022-08-29T09:11:38.718Z,1003.34
2022-08-29T09:12:38.708Z,1003.32
2022-08-29T09:13:38.697Z,1003.48
2022-08-29T09:14:38.727Z,1003.37
2022-08-29T09:15:38.679Z,1003.43
2022-08-29T09:16:38.705Z,1003.39
2022-08-29T09:17:38.678Z,1003.49
2022-08-29T09:18:38.648Z,1003.37
2022-08-29T09:19:38.655Z,1003.30
2022-08-29T09:20:38.662Z,1003.35
2022-08-29T09:21:41.502Z,1003.39
2022-08-29T09:22:38.613Z,1003.44
2022-08-29T09:23:38.591Z,1003.42
2022-08-29T09:24:38.617Z,1003.40
2022-08-29T09:25:38.578Z,1003.31
2022-08-29T09:26:38.591Z,1003.39
2022-08-29T09:27:38.540Z,1003.43
2022-08-29T09:28:38.541Z,1003.38
2022-08-29T09:29:38.521Z,1003.48
2022-08-29T09:30:38.540Z,1003.44
2022-08-29T09:31:38.575Z,1003.45
2022-08-29T09:32:38.522Z,1003.40
2022-08-29T09:33:38.482Z,1003.37
2022-08-29T09:34:57.447Z,1003.43
2022-08-29T09:35:39.469Z,1003.36
2022-08-29T09:36:38.463Z,1003.36
2022-08-29T09:37:38.467Z,1003.23
2022-08-29T09:38:38.433Z,1003.13
2022-08-29T09:39:38.424Z,1003.19
2022-08-29T09:40:38.449Z,1003.15
2022-08-29T09:41:38.395Z,1003.11
2022-08-29T09:42:38.394Z,1003.09
2022-08-29T09:43:38.395Z,1003.19
2022-08-29T09:44:38.376Z,1003.13
2022-08-29T09:45:38.410Z,1003.10
2022-08-29T09:46:38.347Z,1003.03
2022-08-29T09:47:38.337Z,1003.06
2022-08-29T09:48:38.335Z,1003.07
2022-08-29T09:49:38.341Z,1003.06
2022-08-29T09:50:38.308Z,1003.06
2022-08-29T09:51:38.295Z,1003.10
2022-08-29T09:52:38.287Z,1003.12
2022-08-29T09:53:38.275Z,1003.02
2022-08-29T09:54:38.271Z,1002.98
2022-08-29T09:55:38.311Z,1003.03
2022-08-29T09:56:38.242Z,1002.99
2022-08-29T09:57:38.230Z,1003.04
2022-08-29T09:58:40.233Z,1003.04
2022-08-29T09:59:38.211Z,1003.05
2022-08-29T10:00:38.238Z,1002.99
2022-08-29T10:01:38.232Z,1002.98
2022-08-29T10:02:38.239Z,1003.00
2022-08-29T10:03:38.171Z,1002.99
2022-08-29T10:04:38.152Z,1003.03
2022-08-29T10:05:38.143Z,1002.99
2022-08-29T10:06:43.469Z,1002.97
2022-08-29T10:07:39.122Z,1002.96
2022-08-29T10:08:38.125Z,1002.90
2022-08-29T10:09:38.093Z,1002.95
2022-08-29T10:10:38.083Z,1002.99
2022-08-29T10:11:38.072Z,1002.94
2022-08-29T10:12:38.103Z,1002.97
2022-08-29T10:13:38.052Z,1002.97
2022-08-29T10:14:38.043Z,1003.01
2022-08-29T10:15:50.334Z,1002.93
2022-08-29T10:16:39.072Z,1003.04
2022-08-29T10:17:38.013Z,1003.09
2022-08-29T10:18:38.015Z,1003.07
2022-08-29T10:19:37.985Z,1003.06
2022-08-29T10:20:37.974Z,1003.04
2022-08-29T10:21:37.963Z,1003.01
2022-08-29T10:22:37.956Z,1003.06
2022-08-29T10:23:37.935Z,1002.98
2022-08-29T10:24:37.954Z,1002.95
2022-08-29T10:25:37.921Z,1002.93
2022-08-29T10:26:37.906Z,1002.90
2022-08-29T10:27:37.894Z,1002.95
2022-08-29T10:28:37.887Z,1002.93
2022-08-29T10:29:37.877Z,1003.01
2022-08-29T10:30:37.889Z,1002.98
2022-08-29T10:31:37.941Z,1003.00
2022-08-29T10:32:37.868Z,1002.98
2022-08-29T10:33:37.827Z,1003.05
2022-08-29T10:34:37.827Z,1003.07
2022-08-29T10:35:37.822Z,1002.96
2022-08-29T10:36:37.819Z,1002.93
2022-08-29T10:37:37.793Z,1002.92
2022-08-29T10:38:37.778Z,1002.90
2022-08-29T10:39:37.758Z,1002.87
2022-08-29T10:40:37.771Z,1002.89
2022-08-29T10:41:38.791Z,1002.92
2022-08-29T10:42:37.729Z,1002.87
2022-08-29T10:43:37.710Z,1002.87
2022-08-29T10:44:37.716Z,1002.83
2022-08-29T10:45:37.729Z,1002.84
2022-08-29T10:46:37.689Z,1002.78
2022-08-29T10:47:37.701Z,1002.85
2022-08-29T10:48:37.671Z,1002.82
2022-08-29T10:49:47.382Z,1002.82
2022-08-29T10:50:44.685Z,1002.95
2022-08-29T10:51:38.640Z,1002.87
2022-08-29T10:52:37.651Z,1002.87
2022-08-29T10:53:37.633Z,1002.77
2022-08-29T10:54:37.604Z,1002.83
2022-08-29T10:55:37.584Z,1002.76
2022-08-29T10:56:37.583Z,1002.81
2022-08-29T10:57:37.564Z,1002.85
2022-08-29T10:58:37.564Z,1002.77
2022-08-29T10:59:37.565Z,1002.85
2022-08-29T11:00:37.588Z,1002.80
2022-08-29T11:01:37.577Z,1002.76
2022-08-29T11:02:37.514Z,1002.84
2022-08-29T11:03:37.531Z,1002.81
2022-08-29T11:04:37.495Z,1002.76
2022-08-29T11:05:37.504Z,1002.85
2022-08-29T11:07:37.456Z,1002.85
2022-08-29T11:08:37.446Z,1002.80
2022-08-29T11:09:37.434Z,1002.86
2022-08-29T11:10:37.437Z,1002.84
2022-08-29T11:11:37.427Z,1002.79
2022-08-29T11:12:37.406Z,1002.72
2022-08-29T11:13:37.396Z,1002.73
2022-08-29T11:14:37.389Z,1002.67
2022-08-29T11:15:37.371Z,1002.66
2022-08-29T11:16:37.413Z,1002.66
2022-08-29T11:17:37.348Z,1002.63
2022-08-29T11:18:37.338Z,1002.61
2022-08-29T11:19:37.328Z,1002.61
2022-08-29T11:20:37.328Z,1002.61
2022-08-29T11:21:37.307Z,1002.62
2022-08-29T11:22:37.309Z,1002.59
2022-08-29T11:23:37.291Z,1002.66
2022-08-29T11:24:38.101Z,1002.59
2022-08-29T11:25:37.259Z,1002.66
2022-08-29T11:26:37.259Z,1002.76
2022-08-29T11:27:37.260Z,1002.67
2022-08-29T11:28:37.303Z,1002.68
2022-08-29T11:29:37.222Z,1002.65
2022-08-29T11:30:40.363Z,1002.64
2022-08-29T11:31:37.266Z,1002.60
2022-08-29T11:32:37.191Z,1002.62
2022-08-29T11:33:37.210Z,1002.65
2022-08-29T11:34:37.171Z,1002.53
2022-08-29T11:35:37.152Z,1002.57
2022-08-29T11:36:37.143Z,1002.64
2022-08-29T11:37:37.142Z,1002.59
2022-08-29T11:38:37.123Z,1002.63
2022-08-29T11:39:37.133Z,1002.58
2022-08-29T11:40:48.820Z,1002.58
2022-08-29T11:41:38.173Z,1002.56
2022-08-29T11:42:51.791Z,1002.52
2022-08-29T11:43:38.072Z,1002.56
2022-08-29T11:44:37.105Z,1002.46
2022-08-29T11:45:37.679Z,1002.43
2022-08-29T11:46:37.065Z,1002.48
2022-08-29T11:47:41.088Z,1002.52
2022-08-29T11:48:37.016Z,1002.47
2022-08-29T11:49:37.013Z,1002.48
2022-08-29T11:50:37.104Z,1002.46
2022-08-29T11:51:36.985Z,1002.49
2022-08-29T11:52:36.976Z,1002.46
2022-08-29T11:53:36.965Z,1002.46
2022-08-29T11:54:36.955Z,1002.44
2022-08-29T11:55:36.946Z,1002.39
2022-08-29T11:56:36.945Z,1002.36
2022-08-29T11:57:36.925Z,1002.37
2022-08-29T11:58:36.907Z,1002.39
2022-08-29T11:59:36.906Z,1002.36
2022-08-29T12:00:36.888Z,1002.33
2022-08-29T12:01:36.918Z,1002.35
2022-08-29T12:02:36.868Z,1002.43
2022-08-29T12:03:37.296Z,1002.40
2022-08-29T12:04:36.848Z,1002.30
2022-08-29T12:05:36.836Z,1002.33
2022-08-29T12:06:36.819Z,1002.31